sensor_id;sensor_type;location;lat;lon;timestamp;P1;durP1;ratioP1;P2;durP2;ratioP2
3643;SDS011;1838;50.742;7.158;2023-04-16T00:00:29;50.13;;;20.13;;
3643;SDS011;1838;50.742;7.158;2023-04-16T00:02:55;55.07;;;22.83;;
3643;SDS011;1838;50.742;7.158;2023-04-16T00:05:21;63.30;;;24.07;;
3643;SDS011;1838;50.742;7.158;2023-04-16T00:07:46;50.93;;;21.90;;
3643;SDS011;1838;50.742;7.158;2023-04-16T00:10:12;57.37;;;23.00;;
3643;SDS011;1838;50.742;7.158;2023-04-16T00:12:38;68.83;;;25.57;;
3643;SDS011;1838;50.742;7.158;2023-04-16T00:15:03;63.27;;;23.47;;
3643;SDS011;1838;50.742;7.158;2023-04-16T00:17:29;49.57;;;22.27;;
3643;SDS011;1838;50.742;7.158;2023-04-16T00:19:55;59.73;;;24.30;;
3643;SDS011;1838;50.742;7.158;2023-04-16T00:22:20;70.80;;;27.87;;
3643;SDS011;1838;50.742;7.158;2023-04-16T00:24:46;54.90;;;25.90;;
3643;SDS011;1838;50.742;7.158;2023-04-16T00:27:11;66.07;;;27.80;;
3643;SDS011;1838;50.742;7.158;2023-04-16T00:29:37;67.77;;;28.27;;
3643;SDS011;1838;50.742;7.158;2023-04-16T00:32:02;68.40;;;28.50;;
3643;SDS011;1838;50.742;7.158;2023-04-16T00:34:28;76.37;;;29.83;;
3643;SDS011;1838;50.742;7.158;2023-04-16T00:36:53;74.30;;;29.50;;
3643;SDS011;1838;50.742;7.158;2023-04-16T00:39:19;64.70;;;29.93;;
3643;SDS011;1838;50.742;7.158;2023-04-16T00:41:44;67.40;;;28.77;;
3643;SDS011;1838;50.742;7.158;2023-04-16T00:44:10;70.83;;;28.70;;
3643;SDS011;1838;50.742;7.158;2023-04-16T00:46:35;69.43;;;27.17;;
3643;SDS011;1838;50.742;7.158;2023-04-16T00:49:02;66.30;;;27.67;;
3643;SDS011;1838;50.742;7.158;2023-04-16T00:51:28;58.50;;;23.87;;
3643;SDS011;1838;50.742;7.158;2023-04-16T00:53:55;54.70;;;25.97;;
3643;SDS011;1838;50.742;7.158;2023-04-16T00:56:21;55.87;;;23.37;;
3643;SDS011;1838;50.742;7.158;2023-04-16T00:58:48;53.80;;;23.70;;
3643;SDS011;1838;50.742;7.158;2023-04-16T01:01:14;53.30;;;22.67;;
3643;SDS011;1838;50.742;7.158;2023-04-16T01:03:44;51.93;;;23.07;;
3643;SDS011;1838;50.742;7.158;2023-04-16T01:06:12;55.17;;;21.40;;
3643;SDS011;1838;50.742;7.158;2023-04-16T01:08:38;58.17;;;22.73;;
3643;SDS011;1838;50.742;7.158;2023-04-16T01:11:04;50.63;;;21.67;;
3643;SDS011;1838;50.742;7.158;2023-04-16T01:13:30;64.30;;;23.80;;
3643;SDS011;1838;50.742;7.158;2023-04-16T01:15:56;62.87;;;25.20;;
3643;SDS011;1838;50.742;7.158;2023-04-16T01:18:22;63.50;;;26.50;;
3643;SDS011;1838;50.742;7.158;2023-04-16T01:20:48;51.70;;;25.30;;
3643;SDS011;1838;50.742;7.158;2023-04-16T01:23:15;67.80;;;22.70;;
3643;SDS011;1838;50.742;7.158;2023-04-16T01:25:42;61.43;;;24.30;;
3643;SDS011;1838;50.742;7.158;2023-04-16T01:28:08;50.53;;;22.43;;
3643;SDS011;1838;50.742;7.158;2023-04-16T01:30:34;57.47;;;24.53;;
3643;SDS011;1838;50.742;7.158;2023-04-16T01:32:59;65.03;;;24.03;;
3643;SDS011;1838;50.742;7.158;2023-04-16T01:35:25;60.17;;;24.33;;
3643;SDS011;1838;50.742;7.158;2023-04-16T01:37:50;53.43;;;23.03;;
3643;SDS011;1838;50.742;7.158;2023-04-16T01:40:16;54.23;;;23.53;;
3643;SDS011;1838;50.742;7.158;2023-04-16T01:42:42;57.23;;;22.17;;
3643;SDS011;1838;50.742;7.158;2023-04-16T01:45:08;56.20;;;23.93;;
3643;SDS011;1838;50.742;7.158;2023-04-16T01:47:34;53.43;;;22.50;;
3643;SDS011;1838;50.742;7.158;2023-04-16T01:50:00;59.73;;;23.83;;
3643;SDS011;1838;50.742;7.158;2023-04-16T01:52:26;58.83;;;22.30;;
3643;SDS011;1838;50.742;7.158;2023-04-16T01:54:51;56.10;;;21.50;;
3643;SDS011;1838;50.742;7.158;2023-04-16T01:57:17;56.60;;;22.93;;
3643;SDS011;1838;50.742;7.158;2023-04-16T01:59:42;48.77;;;21.70;;
3643;SDS011;1838;50.742;7.158;2023-04-16T02:02:09;61.17;;;23.37;;
3643;SDS011;1838;50.742;7.158;2023-04-16T02:04:38;48.33;;;20.67;;
3643;SDS011;1838;50.742;7.158;2023-04-16T02:07:05;63.80;;;23.80;;
3643;SDS011;1838;50.742;7.158;2023-04-16T02:09:32;54.00;;;24.53;;
3643;SDS011;1838;50.742;7.158;2023-04-16T02:11:58;50.93;;;22.77;;
3643;SDS011;1838;50.742;7.158;2023-04-16T02:14:25;70.10;;;25.60;;
3643;SDS011;1838;50.742;7.158;2023-04-16T02:16:51;70.30;;;27.00;;
3643;SDS011;1838;50.742;7.158;2023-04-16T02:19:17;71.30;;;25.90;;
3643;SDS011;1838;50.742;7.158;2023-04-16T02:21:42;61.53;;;26.60;;
3643;SDS011;1838;50.742;7.158;2023-04-16T02:24:07;64.47;;;22.73;;
3643;SDS011;1838;50.742;7.158;2023-04-16T02:26:33;50.57;;;22.33;;
3643;SDS011;1838;50.742;7.158;2023-04-16T02:28:59;62.40;;;23.17;;
3643;SDS011;1838;50.742;7.158;2023-04-16T02:31:25;49.73;;;22.17;;
3643;SDS011;1838;50.742;7.158;2023-04-16T02:33:52;48.37;;;22.50;;
3643;SDS011;1838;50.742;7.158;2023-04-16T02:36:18;49.60;;;23.07;;
3643;SDS011;1838;50.742;7.158;2023-04-16T02:38:44;57.50;;;24.23;;
3643;SDS011;1838;50.742;7.158;2023-04-16T02:41:09;77.10;;;25.77;;
3643;SDS011;1838;50.742;7.158;2023-04-16T02:43:35;57.83;;;23.80;;
3643;SDS011;1838;50.742;7.158;2023-04-16T02:46:00;59.70;;;24.73;;
3643;SDS011;1838;50.742;7.158;2023-04-16T02:48:26;58.30;;;24.50;;
3643;SDS011;1838;50.742;7.158;2023-04-16T02:50:52;54.17;;;23.10;;
3643;SDS011;1838;50.742;7.158;2023-04-16T02:53:17;53.97;;;22.90;;
3643;SDS011;1838;50.742;7.158;2023-04-16T02:55:48;57.67;;;23.07;;
3643;SDS011;1838;50.742;7.158;2023-04-16T02:58:22;51.73;;;22.87;;
3643;SDS011;1838;50.742;7.158;2023-04-16T03:00:48;66.37;;;22.07;;
3643;SDS011;1838;50.742;7.158;2023-04-16T03:03:14;49.50;;;22.33;;
3643;SDS011;1838;50.742;7.158;2023-04-16T03:05:40;41.43;;;20.70;;
3643;SDS011;1838;50.742;7.158;2023-04-16T03:08:06;46.23;;;23.13;;
3643;SDS011;1838;50.742;7.158;2023-04-16T03:10:32;52.20;;;21.80;;
3643;SDS011;1838;50.742;7.158;2023-04-16T03:12:59;66.10;;;23.27;;
3643;SDS011;1838;50.742;7.158;2023-04-16T03:15:24;56.73;;;21.83;;
3643;SDS011;1838;50.742;7.158;2023-04-16T03:17:51;55.70;;;22.60;;
3643;SDS011;1838;50.742;7.158;2023-04-16T03:20:16;69.90;;;26.60;;
3643;SDS011;1838;50.742;7.158;2023-04-16T03:22:43;56.97;;;25.70;;
3643;SDS011;1838;50.742;7.158;2023-04-16T03:25:08;63.23;;;24.10;;
3643;SDS011;1838;50.742;7.158;2023-04-16T03:27:34;76.10;;;28.97;;
3643;SDS011;1838;50.742;7.158;2023-04-16T03:30:00;63.97;;;28.00;;
3643;SDS011;1838;50.742;7.158;2023-04-16T03:32:25;65.00;;;25.53;;
3643;SDS011;1838;50.742;7.158;2023-04-16T03:34:51;67.73;;;27.80;;
3643;SDS011;1838;50.742;7.158;2023-04-16T03:37:17;66.57;;;24.97;;
3643;SDS011;1838;50.742;7.158;2023-04-16T03:39:42;83.90;;;26.00;;
3643;SDS011;1838;50.742;7.158;2023-04-16T03:42:08;86.60;;;28.03;;
3643;SDS011;1838;50.742;7.158;2023-04-16T03:44:34;60.97;;;25.57;;
3643;SDS011;1838;50.742;7.158;2023-04-16T03:46:59;64.57;;;24.90;;
3643;SDS011;1838;50.742;7.158;2023-04-16T03:49:25;67.17;;;25.97;;
3643;SDS011;1838;50.742;7.158;2023-04-16T03:51:50;71.07;;;25.47;;
3643;SDS011;1838;50.742;7.158;2023-04-16T03:54:16;59.53;;;26.80;;
3643;SDS011;1838;50.742;7.158;2023-04-16T03:56:41;69.23;;;26.87;;
3643;SDS011;1838;50.742;7.158;2023-04-16T03:59:07;64.93;;;25.43;;
3643;SDS011;1838;50.742;7.158;2023-04-16T04:01:33;68.30;;;25.37;;
3643;SDS011;1838;50.742;7.158;2023-04-16T04:03:58;61.60;;;26.73;;
3643;SDS011;1838;50.742;7.158;2023-04-16T04:06:24;64.27;;;26.30;;
3643;SDS011;1838;50.742;7.158;2023-04-16T04:08:50;69.33;;;25.63;;
3643;SDS011;1838;50.742;7.158;2023-04-16T04:11:15;60.80;;;24.93;;
3643;SDS011;1838;50.742;7.158;2023-04-16T04:13:41;64.03;;;24.50;;
3643;SDS011;1838;50.742;7.158;2023-04-16T04:16:06;79.70;;;26.13;;
3643;SDS011;1838;50.742;7.158;2023-04-16T04:18:32;49.80;;;23.10;;
3643;SDS011;1838;50.742;7.158;2023-04-16T04:20:57;67.57;;;27.20;;
3643;SDS011;1838;50.742;7.158;2023-04-16T04:23:23;76.50;;;27.00;;
3643;SDS011;1838;50.742;7.158;2023-04-16T04:25:48;69.10;;;27.90;;
3643;SDS011;1838;50.742;7.158;2023-04-16T04:28:14;67.40;;;25.47;;
3643;SDS011;1838;50.742;7.158;2023-04-16T04:30:40;56.03;;;24.87;;
3643;SDS011;1838;50.742;7.158;2023-04-16T04:33:06;60.93;;;26.63;;
3643;SDS011;1838;50.742;7.158;2023-04-16T04:35:31;68.77;;;26.90;;
3643;SDS011;1838;50.742;7.158;2023-04-16T04:37:57;51.80;;;23.60;;
3643;SDS011;1838;50.742;7.158;2023-04-16T04:40:23;71.10;;;25.73;;
3643;SDS011;1838;50.742;7.158;2023-04-16T04:42:48;63.30;;;25.10;;
3643;SDS011;1838;50.742;7.158;2023-04-16T04:45:14;79.43;;;29.50;;
3643;SDS011;1838;50.742;7.158;2023-04-16T04:47:40;61.27;;;24.73;;
3643;SDS011;1838;50.742;7.158;2023-04-16T04:50:05;74.10;;;27.07;;
3643;SDS011;1838;50.742;7.158;2023-04-16T04:52:31;63.77;;;27.40;;
3643;SDS011;1838;50.742;7.158;2023-04-16T04:54:57;63.87;;;25.90;;
3643;SDS011;1838;50.742;7.158;2023-04-16T04:57:22;73.27;;;28.23;;
3643;SDS011;1838;50.742;7.158;2023-04-16T04:59:48;82.17;;;33.77;;
3643;SDS011;1838;50.742;7.158;2023-04-16T05:02:13;82.33;;;29.83;;
3643;SDS011;1838;50.742;7.158;2023-04-16T05:04:39;81.40;;;31.23;;
3643;SDS011;1838;50.742;7.158;2023-04-16T05:07:04;84.67;;;31.57;;
3643;SDS011;1838;50.742;7.158;2023-04-16T05:09:31;86.07;;;33.33;;
3643;SDS011;1838;50.742;7.158;2023-04-16T05:11:56;88.30;;;33.50;;
3643;SDS011;1838;50.742;7.158;2023-04-16T05:14:22;99.37;;;31.30;;
3643;SDS011;1838;50.742;7.158;2023-04-16T05:16:47;92.70;;;33.90;;
3643;SDS011;1838;50.742;7.158;2023-04-16T05:19:13;99.93;;;34.20;;
3643;SDS011;1838;50.742;7.158;2023-04-16T05:21:38;89.90;;;32.87;;
3643;SDS011;1838;50.742;7.158;2023-04-16T05:24:04;89.33;;;31.50;;
3643;SDS011;1838;50.742;7.158;2023-04-16T05:26:30;86.60;;;32.93;;
3643;SDS011;1838;50.742;7.158;2023-04-16T05:28:55;89.80;;;32.50;;
3643;SDS011;1838;50.742;7.158;2023-04-16T05:31:21;128.70;;;37.10;;
3643;SDS011;1838;50.742;7.158;2023-04-16T05:33:46;99.10;;;34.73;;
3643;SDS011;1838;50.742;7.158;2023-04-16T05:36:12;105.23;;;33.70;;
3643;SDS011;1838;50.742;7.158;2023-04-16T05:38:37;96.07;;;32.43;;
3643;SDS011;1838;50.742;7.158;2023-04-16T05:41:03;105.03;;;36.60;;
3643;SDS011;1838;50.742;7.158;2023-04-16T05:43:28;106.57;;;35.13;;
3643;SDS011;1838;50.742;7.158;2023-04-16T05:45:54;121.40;;;36.87;;
3643;SDS011;1838;50.742;7.158;2023-04-16T05:48:20;121.63;;;37.80;;
3643;SDS011;1838;50.742;7.158;2023-04-16T05:50:45;98.47;;;33.33;;
3643;SDS011;1838;50.742;7.158;2023-04-16T05:53:11;96.53;;;34.13;;
3643;SDS011;1838;50.742;7.158;2023-04-16T05:55:38;107.13;;;35.57;;
3643;SDS011;1838;50.742;7.158;2023-04-16T05:58:03;97.97;;;35.77;;
3643;SDS011;1838;50.742;7.158;2023-04-16T06:00:29;97.57;;;35.50;;
3643;SDS011;1838;50.742;7.158;2023-04-16T06:02:56;107.23;;;34.30;;
3643;SDS011;1838;50.742;7.158;2023-04-16T06:05:22;93.20;;;34.53;;
3643;SDS011;1838;50.742;7.158;2023-04-16T06:07:48;95.07;;;34.50;;
3643;SDS011;1838;50.742;7.158;2023-04-16T06:10:13;98.70;;;35.20;;
3643;SDS011;1838;50.742;7.158;2023-04-16T06:12:39;100.77;;;34.37;;
3643;SDS011;1838;50.742;7.158;2023-04-16T06:15:04;80.27;;;32.70;;
3643;SDS011;1838;50.742;7.158;2023-04-16T06:17:30;101.20;;;36.50;;
3643;SDS011;1838;50.742;7.158;2023-04-16T06:19:56;101.03;;;32.77;;
3643;SDS011;1838;50.742;7.158;2023-04-16T06:22:21;98.43;;;34.47;;
3643;SDS011;1838;50.742;7.158;2023-04-16T06:24:48;112.57;;;36.50;;
3643;SDS011;1838;50.742;7.158;2023-04-16T06:27:13;107.87;;;36.67;;
3643;SDS011;1838;50.742;7.158;2023-04-16T06:29:39;93.93;;;34.17;;
3643;SDS011;1838;50.742;7.158;2023-04-16T06:32:05;105.97;;;33.40;;
3643;SDS011;1838;50.742;7.158;2023-04-16T06:34:31;104.63;;;35.70;;
3643;SDS011;1838;50.742;7.158;2023-04-16T06:36:56;97.50;;;35.33;;
3643;SDS011;1838;50.742;7.158;2023-04-16T06:39:22;92.30;;;32.10;;
3643;SDS011;1838;50.742;7.158;2023-04-16T06:41:47;101.57;;;35.60;;
3643;SDS011;1838;50.742;7.158;2023-04-16T06:44:13;97.90;;;32.90;;
3643;SDS011;1838;50.742;7.158;2023-04-16T06:46:39;93.30;;;33.20;;
3643;SDS011;1838;50.742;7.158;2023-04-16T06:49:05;99.03;;;33.00;;
3643;SDS011;1838;50.742;7.158;2023-04-16T06:51:31;86.83;;;31.67;;
3643;SDS011;1838;50.742;7.158;2023-04-16T06:53:57;94.27;;;35.30;;
3643;SDS011;1838;50.742;7.158;2023-04-16T06:56:22;88.73;;;31.17;;
3643;SDS011;1838;50.742;7.158;2023-04-16T06:58:48;95.87;;;34.30;;
3643;SDS011;1838;50.742;7.158;2023-04-16T07:01:14;86.83;;;33.17;;
3643;SDS011;1838;50.742;7.158;2023-04-16T07:03:41;81.80;;;30.10;;
3643;SDS011;1838;50.742;7.158;2023-04-16T07:06:06;83.30;;;31.33;;
3643;SDS011;1838;50.742;7.158;2023-04-16T07:08:32;82.93;;;30.90;;
3643;SDS011;1838;50.742;7.158;2023-04-16T07:10:57;85.00;;;29.67;;
3643;SDS011;1838;50.742;7.158;2023-04-16T07:13:23;97.80;;;33.80;;
3643;SDS011;1838;50.742;7.158;2023-04-16T07:15:48;84.70;;;31.10;;
3643;SDS011;1838;50.742;7.158;2023-04-16T07:18:14;72.67;;;28.00;;
3643;SDS011;1838;50.742;7.158;2023-04-16T07:20:40;71.40;;;28.33;;
3643;SDS011;1838;50.742;7.158;2023-04-16T07:23:06;86.07;;;31.20;;
3643;SDS011;1838;50.742;7.158;2023-04-16T07:25:31;82.30;;;30.57;;
3643;SDS011;1838;50.742;7.158;2023-04-16T07:27:57;73.87;;;27.20;;
3643;SDS011;1838;50.742;7.158;2023-04-16T07:30:22;60.50;;;27.87;;
3643;SDS011;1838;50.742;7.158;2023-04-16T07:32:48;63.30;;;26.10;;
3643;SDS011;1838;50.742;7.158;2023-04-16T07:35:15;73.23;;;29.07;;
3643;SDS011;1838;50.742;7.158;2023-04-16T07:37:41;74.53;;;27.30;;
3643;SDS011;1838;50.742;7.158;2023-04-16T07:40:06;61.37;;;24.50;;
3643;SDS011;1838;50.742;7.158;2023-04-16T07:42:32;67.63;;;26.50;;
3643;SDS011;1838;50.742;7.158;2023-04-16T07:44:58;64.60;;;25.10;;
3643;SDS011;1838;50.742;7.158;2023-04-16T07:47:23;77.17;;;26.40;;
3643;SDS011;1838;50.742;7.158;2023-04-16T07:49:50;75.70;;;27.67;;
3643;SDS011;1838;50.742;7.158;2023-04-16T07:52:16;73.37;;;30.27;;
3643;SDS011;1838;50.742;7.158;2023-04-16T07:54:42;73.67;;;29.27;;
3643;SDS011;1838;50.742;7.158;2023-04-16T07:57:07;89.40;;;32.10;;
3643;SDS011;1838;50.742;7.158;2023-04-16T07:59:32;80.97;;;31.23;;
3643;SDS011;1838;50.742;7.158;2023-04-16T08:01:58;68.30;;;30.73;;
3643;SDS011;1838;50.742;7.158;2023-04-16T08:04:23;81.80;;;33.67;;
3643;SDS011;1838;50.742;7.158;2023-04-16T08:06:50;86.50;;;31.40;;
3643;SDS011;1838;50.742;7.158;2023-04-16T08:09:15;81.53;;;31.57;;
3643;SDS011;1838;50.742;7.158;2023-04-16T08:11:42;81.00;;;32.20;;
3643;SDS011;1838;50.742;7.158;2023-04-16T08:14:08;72.27;;;31.40;;
3643;SDS011;1838;50.742;7.158;2023-04-16T08:16:33;72.27;;;29.30;;
3643;SDS011;1838;50.742;7.158;2023-04-16T08:18:59;60.90;;;30.30;;
3643;SDS011;1838;50.742;7.158;2023-04-16T08:21:25;71.30;;;29.27;;
3643;SDS011;1838;50.742;7.158;2023-04-16T08:23:51;53.93;;;27.30;;
3643;SDS011;1838;50.742;7.158;2023-04-16T08:26:18;60.17;;;28.27;;
3643;SDS011;1838;50.742;7.158;2023-04-16T08:28:43;73.43;;;28.10;;
3643;SDS011;1838;50.742;7.158;2023-04-16T08:31:20;63.13;;;26.83;;
3643;SDS011;1838;50.742;7.158;2023-04-16T08:33:46;57.90;;;25.33;;
3643;SDS011;1838;50.742;7.158;2023-04-16T08:36:11;60.00;;;26.57;;
3643;SDS011;1838;50.742;7.158;2023-04-16T08:38:37;72.60;;;27.00;;
3643;SDS011;1838;50.742;7.158;2023-04-16T08:41:04;74.97;;;28.30;;
3643;SDS011;1838;50.742;7.158;2023-04-16T08:43:33;68.10;;;28.57;;
3643;SDS011;1838;50.742;7.158;2023-04-16T08:46:02;68.10;;;28.40;;
3643;SDS011;1838;50.742;7.158;2023-04-16T08:48:31;63.90;;;28.03;;
3643;SDS011;1838;50.742;7.158;2023-04-16T08:50:58;61.70;;;29.97;;
3643;SDS011;1838;50.742;7.158;2023-04-16T08:53:28;75.33;;;27.57;;
3643;SDS011;1838;50.742;7.158;2023-04-16T08:56:02;63.17;;;29.83;;
3643;SDS011;1838;50.742;7.158;2023-04-16T08:58:29;61.00;;;27.17;;
3643;SDS011;1838;50.742;7.158;2023-04-16T09:00:58;66.20;;;27.97;;
3643;SDS011;1838;50.742;7.158;2023-04-16T09:03:27;61.93;;;28.90;;
3643;SDS011;1838;50.742;7.158;2023-04-16T09:05:56;66.73;;;27.80;;
3643;SDS011;1838;50.742;7.158;2023-04-16T09:08:24;65.90;;;27.23;;
3643;SDS011;1838;50.742;7.158;2023-04-16T09:10:50;50.20;;;26.80;;
3643;SDS011;1838;50.742;7.158;2023-04-16T09:13:15;67.10;;;27.40;;
3643;SDS011;1838;50.742;7.158;2023-04-16T09:15:44;69.30;;;29.97;;
3643;SDS011;1838;50.742;7.158;2023-04-16T09:18:10;60.93;;;27.47;;
3643;SDS011;1838;50.742;7.158;2023-04-16T09:20:36;65.90;;;29.43;;
3643;SDS011;1838;50.742;7.158;2023-04-16T09:23:02;55.70;;;27.40;;
3643;SDS011;1838;50.742;7.158;2023-04-16T09:25:32;54.40;;;26.70;;
3643;SDS011;1838;50.742;7.158;2023-04-16T09:28:02;68.13;;;29.27;;
3643;SDS011;1838;50.742;7.158;2023-04-16T09:30:28;59.07;;;27.87;;
3643;SDS011;1838;50.742;7.158;2023-04-16T09:33:10;63.20;;;30.63;;
3643;SDS011;1838;50.742;7.158;2023-04-16T09:35:47;60.30;;;27.37;;
3643;SDS011;1838;50.742;7.158;2023-04-16T09:38:15;70.60;;;32.27;;
3643;SDS011;1838;50.742;7.158;2023-04-16T09:40:41;53.73;;;26.90;;
3643;SDS011;1838;50.742;7.158;2023-04-16T09:43:10;58.73;;;30.00;;
3643;SDS011;1838;50.742;7.158;2023-04-16T09:45:50;51.50;;;27.27;;
3643;SDS011;1838;50.742;7.158;2023-04-16T09:48:27;55.80;;;26.63;;
3643;SDS011;1838;50.742;7.158;2023-04-16T09:50:53;50.20;;;27.03;;
3643;SDS011;1838;50.742;7.158;2023-04-16T09:53:29;55.90;;;27.50;;
3643;SDS011;1838;50.742;7.158;2023-04-16T09:55:56;55.40;;;24.93;;
3643;SDS011;1838;50.742;7.158;2023-04-16T09:58:29;49.83;;;23.57;;
3643;SDS011;1838;50.742;7.158;2023-04-16T10:00:59;50.23;;;24.60;;
3643;SDS011;1838;50.742;7.158;2023-04-16T10:03:32;52.93;;;26.07;;
3643;SDS011;1838;50.742;7.158;2023-04-16T10:06:18;50.30;;;27.03;;
3643;SDS011;1838;50.742;7.158;2023-04-16T10:08:51;55.17;;;29.57;;
3643;SDS011;1838;50.742;7.158;2023-04-16T10:11:18;54.03;;;26.80;;
3643;SDS011;1838;50.742;7.158;2023-04-16T10:13:44;53.03;;;26.97;;
3643;SDS011;1838;50.742;7.158;2023-04-16T10:16:10;50.47;;;26.33;;
3643;SDS011;1838;50.742;7.158;2023-04-16T10:18:37;54.77;;;28.47;;
3643;SDS011;1838;50.742;7.158;2023-04-16T10:21:03;52.63;;;26.40;;
3643;SDS011;1838;50.742;7.158;2023-04-16T10:23:29;53.27;;;27.20;;
3643;SDS011;1838;50.742;7.158;2023-04-16T10:25:56;50.00;;;24.80;;
3643;SDS011;1838;50.742;7.158;2023-04-16T10:28:24;47.93;;;25.00;;
3643;SDS011;1838;50.742;7.158;2023-04-16T10:30:49;47.53;;;26.70;;
3643;SDS011;1838;50.742;7.158;2023-04-16T10:33:20;42.13;;;25.13;;
3643;SDS011;1838;50.742;7.158;2023-04-16T10:35:47;40.57;;;23.20;;
3643;SDS011;1838;50.742;7.158;2023-04-16T10:38:23;45.23;;;23.50;;
3643;SDS011;1838;50.742;7.158;2023-04-16T10:40:57;48.50;;;24.33;;
3643;SDS011;1838;50.742;7.158;2023-04-16T10:43:27;40.90;;;23.33;;
3643;SDS011;1838;50.742;7.158;2023-04-16T10:45:54;47.17;;;25.30;;
3643;SDS011;1838;50.742;7.158;2023-04-16T10:48:20;44.33;;;24.20;;
3643;SDS011;1838;50.742;7.158;2023-04-16T10:50:54;47.90;;;25.20;;
3643;SDS011;1838;50.742;7.158;2023-04-16T10:53:25;44.10;;;27.07;;
3643;SDS011;1838;50.742;7.158;2023-04-16T10:58:33;44.03;;;25.20;;
3643;SDS011;1838;50.742;7.158;2023-04-16T11:01:00;51.27;;;28.60;;
3643;SDS011;1838;50.742;7.158;2023-04-16T11:03:30;47.30;;;26.10;;
3643;SDS011;1838;50.742;7.158;2023-04-16T11:06:12;48.40;;;25.33;;
3643;SDS011;1838;50.742;7.158;2023-04-16T11:08:41;51.10;;;26.87;;
3643;SDS011;1838;50.742;7.158;2023-04-16T11:11:09;52.10;;;27.10;;
3643;SDS011;1838;50.742;7.158;2023-04-16T11:13:35;49.70;;;27.43;;
3643;SDS011;1838;50.742;7.158;2023-04-16T11:16:01;42.47;;;25.70;;
3643;SDS011;1838;50.742;7.158;2023-04-16T11:18:28;45.40;;;27.80;;
3643;SDS011;1838;50.742;7.158;2023-04-16T11:20:53;50.30;;;27.33;;
3643;SDS011;1838;50.742;7.158;2023-04-16T11:23:19;53.70;;;29.90;;
3643;SDS011;1838;50.742;7.158;2023-04-16T11:25:45;48.23;;;28.20;;
3643;SDS011;1838;50.742;7.158;2023-04-16T11:28:10;56.27;;;26.53;;
3643;SDS011;1838;50.742;7.158;2023-04-16T11:30:36;52.70;;;27.90;;
3643;SDS011;1838;50.742;7.158;2023-04-16T11:33:09;48.53;;;28.07;;
3643;SDS011;1838;50.742;7.158;2023-04-16T11:35:36;47.90;;;27.57;;
3643;SDS011;1838;50.742;7.158;2023-04-16T11:38:07;48.00;;;27.40;;
3643;SDS011;1838;50.742;7.158;2023-04-16T11:40:32;46.13;;;26.53;;
3643;SDS011;1838;50.742;7.158;2023-04-16T11:43:03;45.50;;;26.80;;
3643;SDS011;1838;50.742;7.158;2023-04-16T11:45:37;45.97;;;27.07;;
3643;SDS011;1838;50.742;7.158;2023-04-16T11:48:02;49.20;;;26.83;;
3643;SDS011;1838;50.742;7.158;2023-04-16T11:50:28;46.87;;;26.47;;
3643;SDS011;1838;50.742;7.158;2023-04-16T11:52:55;39.20;;;25.13;;
3643;SDS011;1838;50.742;7.158;2023-04-16T11:55:22;42.13;;;24.67;;
3643;SDS011;1838;50.742;7.158;2023-04-16T11:57:48;48.70;;;25.40;;
3643;SDS011;1838;50.742;7.158;2023-04-16T12:00:14;48.83;;;25.90;;
3643;SDS011;1838;50.742;7.158;2023-04-16T12:02:44;45.90;;;25.90;;
3643;SDS011;1838;50.742;7.158;2023-04-16T12:07:55;43.77;;;26.17;;
3643;SDS011;1838;50.742;7.158;2023-04-16T12:10:22;40.40;;;25.13;;
3643;SDS011;1838;50.742;7.158;2023-04-16T12:12:48;45.97;;;25.43;;
3643;SDS011;1838;50.742;7.158;2023-04-16T12:15:13;46.47;;;26.50;;
3643;SDS011;1838;50.742;7.158;2023-04-16T12:17:39;45.77;;;26.23;;
3643;SDS011;1838;50.742;7.158;2023-04-16T12:20:09;39.87;;;25.53;;
3643;SDS011;1838;50.742;7.158;2023-04-16T12:22:36;43.20;;;26.33;;
3643;SDS011;1838;50.742;7.158;2023-04-16T12:25:07;38.70;;;24.00;;
3643;SDS011;1838;50.742;7.158;2023-04-16T12:27:49;45.40;;;26.70;;
3643;SDS011;1838;50.742;7.158;2023-04-16T12:30:17;44.63;;;25.40;;
3643;SDS011;1838;50.742;7.158;2023-04-16T12:32:44;46.40;;;24.93;;
3643;SDS011;1838;50.742;7.158;2023-04-16T12:35:12;48.63;;;26.20;;
3643;SDS011;1838;50.742;7.158;2023-04-16T12:37:38;55.17;;;26.93;;
3643;SDS011;1838;50.742;7.158;2023-04-16T12:40:04;39.67;;;24.60;;
3643;SDS011;1838;50.742;7.158;2023-04-16T12:42:31;40.60;;;25.93;;
3643;SDS011;1838;50.742;7.158;2023-04-16T12:45:04;41.43;;;25.27;;
3643;SDS011;1838;50.742;7.158;2023-04-16T12:47:31;43.30;;;25.67;;
3643;SDS011;1838;50.742;7.158;2023-04-16T12:49:56;44.73;;;26.70;;
3643;SDS011;1838;50.742;7.158;2023-04-16T12:52:25;45.90;;;27.07;;
3643;SDS011;1838;50.742;7.158;2023-04-16T12:54:51;43.33;;;25.50;;
3643;SDS011;1838;50.742;7.158;2023-04-16T12:57:17;44.00;;;24.60;;
3643;SDS011;1838;50.742;7.158;2023-04-16T12:59:43;44.43;;;27.10;;
3643;SDS011;1838;50.742;7.158;2023-04-16T13:02:08;36.23;;;24.23;;
3643;SDS011;1838;50.742;7.158;2023-04-16T13:04:34;44.37;;;26.73;;
3643;SDS011;1838;50.742;7.158;2023-04-16T13:06:59;37.60;;;25.50;;
3643;SDS011;1838;50.742;7.158;2023-04-16T13:09:25;49.37;;;24.63;;
3643;SDS011;1838;50.742;7.158;2023-04-16T13:11:51;40.80;;;25.90;;
3643;SDS011;1838;50.742;7.158;2023-04-16T13:14:16;39.47;;;24.23;;
3643;SDS011;1838;50.742;7.158;2023-04-16T13:16:42;43.17;;;23.77;;
3643;SDS011;1838;50.742;7.158;2023-04-16T13:19:08;36.53;;;22.83;;
3643;SDS011;1838;50.742;7.158;2023-04-16T13:21:33;29.77;;;19.90;;
3643;SDS011;1838;50.742;7.158;2023-04-16T13:23:59;37.97;;;21.80;;
3643;SDS011;1838;50.742;7.158;2023-04-16T13:26:25;27.80;;;19.50;;
3643;SDS011;1838;50.742;7.158;2023-04-16T13:28:50;31.17;;;20.70;;
3643;SDS011;1838;50.742;7.158;2023-04-16T13:31:16;35.13;;;23.33;;
3643;SDS011;1838;50.742;7.158;2023-04-16T13:33:44;42.83;;;25.40;;
3643;SDS011;1838;50.742;7.158;2023-04-16T13:36:10;49.90;;;26.00;;
3643;SDS011;1838;50.742;7.158;2023-04-16T13:38:35;41.07;;;25.70;;
3643;SDS011;1838;50.742;7.158;2023-04-16T13:41:02;35.67;;;23.07;;
3643;SDS011;1838;50.742;7.158;2023-04-16T13:43:28;41.80;;;23.80;;
3643;SDS011;1838;50.742;7.158;2023-04-16T13:45:54;34.93;;;23.57;;
3643;SDS011;1838;50.742;7.158;2023-04-16T13:48:19;41.80;;;22.80;;
3643;SDS011;1838;50.742;7.158;2023-04-16T13:50:45;34.37;;;22.33;;
3643;SDS011;1838;50.742;7.158;2023-04-16T13:53:10;34.27;;;21.67;;
3643;SDS011;1838;50.742;7.158;2023-04-16T13:55:36;34.13;;;21.77;;
3643;SDS011;1838;50.742;7.158;2023-04-16T13:58:02;34.60;;;22.13;;
3643;SDS011;1838;50.742;7.158;2023-04-16T14:00:27;30.50;;;19.93;;
3643;SDS011;1838;50.742;7.158;2023-04-16T14:02:53;26.13;;;18.83;;
3643;SDS011;1838;50.742;7.158;2023-04-16T14:05:18;33.50;;;19.33;;
3643;SDS011;1838;50.742;7.158;2023-04-16T14:07:44;27.93;;;17.70;;
3643;SDS011;1838;50.742;7.158;2023-04-16T14:10:10;29.37;;;18.53;;
3643;SDS011;1838;50.742;7.158;2023-04-16T14:12:36;22.70;;;15.40;;
3643;SDS011;1838;50.742;7.158;2023-04-16T14:15:03;30.90;;;21.40;;
3643;SDS011;1838;50.742;7.158;2023-04-16T14:17:33;33.93;;;21.80;;
3643;SDS011;1838;50.742;7.158;2023-04-16T14:19:59;33.60;;;23.40;;
3643;SDS011;1838;50.742;7.158;2023-04-16T14:22:25;34.57;;;22.57;;
3643;SDS011;1838;50.742;7.158;2023-04-16T14:24:50;33.77;;;22.57;;
3643;SDS011;1838;50.742;7.158;2023-04-16T14:27:16;34.17;;;22.43;;
3643;SDS011;1838;50.742;7.158;2023-04-16T14:29:41;35.20;;;21.90;;
3643;SDS011;1838;50.742;7.158;2023-04-16T14:32:08;28.27;;;19.30;;
3643;SDS011;1838;50.742;7.158;2023-04-16T14:34:33;29.80;;;19.77;;
3643;SDS011;1838;50.742;7.158;2023-04-16T14:36:59;31.83;;;19.83;;
3643;SDS011;1838;50.742;7.158;2023-04-16T14:39:24;27.97;;;19.57;;
3643;SDS011;1838;50.742;7.158;2023-04-16T14:41:51;32.40;;;19.73;;
3643;SDS011;1838;50.742;7.158;2023-04-16T14:44:16;29.10;;;20.57;;
3643;SDS011;1838;50.742;7.158;2023-04-16T14:46:41;31.47;;;18.90;;
3643;SDS011;1838;50.742;7.158;2023-04-16T14:49:07;27.93;;;19.43;;